createdAt,value
2022-11-05T00:00:45.040Z,99160.28
2022-11-05T00:03:32.688Z,99164.72
2022-11-05T00:06:20.311Z,99147.00
2022-11-05T00:09:07.799Z,99159.50
2022-11-05T00:11:54.444Z,99165.50
2022-11-05T00:14:41.701Z,99151.34
2022-11-05T00:17:10.509Z,99141.06
2022-11-05T00:19:39.953Z,99135.44
2022-11-05T00:22:27.789Z,99138.31
2022-11-05T00:25:14.766Z,99127.31
2022-11-05T00:27:47.121Z,99123.66
2022-11-05T00:30:22.637Z,99126.28
2022-11-05T00:32:52.985Z,99133.75
2022-11-05T00:35:23.065Z,99138.59
2022-11-05T00:37:53.952Z,99140.19
2022-11-05T00:40:22.577Z,99145.81
2022-11-05T00:43:10.569Z,99151.97
2022-11-05T00:45:40.027Z,99145.25
2022-11-05T00:48:26.950Z,99151.66
2022-11-05T00:50:56.525Z,99144.84
2022-11-05T00:53:24.701Z,99137.03
2022-11-05T00:55:53.180Z,99144.22
2022-11-05T00:58:24.041Z,99137.09
2022-11-05T01:00:56.462Z,99138.88
2022-11-05T01:03:33.286Z,99136.12
2022-11-05T01:06:13.326Z,99146.34
2022-11-05T01:08:44.165Z,99144.06
2022-11-05T01:11:39.523Z,99153.56
2022-11-05T01:14:12.717Z,99153.81
2022-11-05T01:16:41.051Z,99153.28
2022-11-05T01:19:11.016Z,99160.16
2022-11-05T01:21:38.814Z,99150.28
2022-11-05T01:24:08.460Z,99160.16
2022-11-05T01:26:36.379Z,99155.09
2022-11-05T01:29:03.786Z,99157.97
2022-11-05T01:31:33.238Z,99153.31
2022-11-05T01:34:03.538Z,99147.31
2022-11-05T01:36:34.000Z,99146.91
2022-11-05T01:39:04.757Z,99144.12
2022-11-05T01:41:35.014Z,99132.16
2022-11-05T01:44:03.791Z,99137.69
2022-11-05T01:46:43.699Z,99161.50
2022-11-05T01:49:22.587Z,99165.53
2022-11-05T01:51:52.053Z,99177.00
2022-11-05T01:54:23.205Z,99185.22
2022-11-05T01:57:04.434Z,99192.81
2022-11-05T01:59:37.391Z,99183.81
2022-11-05T02:02:07.956Z,99177.78
2022-11-05T02:04:46.084Z,99171.16
2022-11-05T02:07:15.786Z,99168.94
2022-11-05T02:10:01.961Z,99180.66
2022-11-05T02:12:32.609Z,99187.72
2022-11-05T02:15:02.904Z,99179.91
2022-11-05T02:18:00.612Z,99178.53
2022-11-05T02:20:36.071Z,99187.47
2022-11-05T02:23:18.732Z,99190.69
2022-11-05T02:26:14.374Z,99194.19
2022-11-05T02:29:28.606Z,99194.75
2022-11-05T02:32:25.096Z,99183.19
2022-11-05T02:35:00.001Z,99179.13
2022-11-05T02:37:41.226Z,99183.16
2022-11-05T02:40:26.367Z,99181.94
2022-11-05T02:43:05.752Z,99181.69
2022-11-05T02:46:09.207Z,99181.97
2022-11-05T02:48:56.466Z,99188.84
2022-11-05T02:51:35.605Z,99195.88
2022-11-05T02:54:18.583Z,99189.56
2022-11-05T02:56:48.658Z,99190.81
2022-11-05T02:59:18.714Z,99189.69
2022-11-05T03:01:48.502Z,99194.59
2022-11-05T03:04:22.969Z,99198.06
2022-11-05T03:07:17.144Z,99194.47
2022-11-05T03:10:02.259Z,99200.19
2022-11-05T03:12:50.795Z,99194.00
2022-11-05T03:15:38.252Z,99201.16
2022-11-05T03:18:30.831Z,99198.31
2022-11-05T03:21:02.910Z,99211.59
2022-11-05T03:23:45.727Z,99207.63
2022-11-05T03:26:31.095Z,99209.91
2022-11-05T03:29:13.443Z,99212.00
2022-11-05T03:31:43.422Z,99224.91
2022-11-05T03:34:13.650Z,99232.22
2022-11-05T03:36:46.247Z,99224.22
2022-11-05T03:39:20.194Z,99222.31
2022-11-05T03:41:53.325Z,99223.53
2022-11-05T03:44:30.598Z,99214.84
2022-11-05T03:47:07.298Z,99222.38
2022-11-05T03:49:49.875Z,99221.72
2022-11-05T03:52:21.490Z,99233.56
2022-11-05T03:54:51.925Z,99227.38
2022-11-05T03:57:25.898Z,99239.44
2022-11-05T03:59:55.153Z,99246.09
2022-11-05T04:02:26.613Z,99247.94
2022-11-05T04:04:56.135Z,99241.41
2022-11-05T04:07:43.853Z,99229.25
2022-11-05T04:10:32.563Z,99215.66
2022-11-05T04:13:20.353Z,99214.31
2022-11-05T04:16:09.806Z,99222.72
2022-11-05T04:18:38.783Z,99220.31
2022-11-05T04:21:25.870Z,99222.84
2022-11-05T04:24:09.711Z,99228.91
2022-11-05T04:26:40.053Z,99229.22
2022-11-05T04:29:27.070Z,99219.28
2022-11-05T04:31:56.616Z,99228.00
2022-11-05T04:34:26.359Z,99218.00
2022-11-05T04:36:56.336Z,99210.19
2022-11-05T04:39:25.349Z,99200.03
2022-11-05T04:41:54.901Z,99202.13
2022-11-05T04:44:23.289Z,99206.28
2022-11-05T04:46:53.788Z,99212.12
2022-11-05T04:49:24.224Z,99211.16
2022-11-05T04:51:52.702Z,99211.81
2022-11-05T04:54:20.984Z,99219.47
2022-11-05T04:56:48.884Z,99225.41
2022-11-05T04:59:22.760Z,99214.03
2022-11-05T05:01:53.722Z,99215.34
2022-11-05T05:04:23.609Z,99221.88
2022-11-05T05:06:51.050Z,99220.81
2022-11-05T05:09:20.255Z,99214.72
2022-11-05T05:11:49.637Z,99217.28
2022-11-05T05:14:17.906Z,99209.06
2022-11-05T05:16:45.911Z,99214.72
2022-11-05T05:19:16.541Z,99208.25
2022-11-05T05:21:46.359Z,99205.47
2022-11-05T05:24:19.259Z,99222.72
2022-11-05T05:26:50.281Z,99221.19
2022-11-05T05:29:19.518Z,99226.50
2022-11-05T05:31:47.371Z,99236.31
2022-11-05T05:34:14.909Z,99240.69
2022-11-05T05:36:43.398Z,99228.00
2022-11-05T05:39:13.168Z,99242.00
2022-11-05T05:41:41.701Z,99237.94
2022-11-05T05:44:10.329Z,99232.47
2022-11-05T05:46:38.933Z,99241.16
2022-11-05T05:49:12.537Z,99251.25
2022-11-05T05:51:42.322Z,99255.28
2022-11-05T05:54:12.538Z,99254.78
2022-11-05T05:56:46.323Z,99271.47
2022-11-05T05:59:14.614Z,99276.13
2022-11-05T06:01:43.855Z,99279.25
2022-11-05T06:04:12.933Z,99288.97
2022-11-05T06:06:42.605Z,99301.13
2022-11-05T06:09:12.345Z,99312.47
2022-11-05T06:11:41.687Z,99316.63
2022-11-05T06:14:12.251Z,99311.19
2022-11-05T06:16:42.395Z,99315.94
2022-11-05T06:19:11.765Z,99317.41
2022-11-05T06:21:41.255Z,99321.91
2022-11-05T06:24:11.959Z,99335.72
2022-11-05T06:26:44.464Z,99342.53
2022-11-05T06:29:12.572Z,99357.25
2022-11-05T06:31:43.286Z,99338.72
2022-11-05T06:34:11.606Z,99346.16
2022-11-05T06:36:40.341Z,99345.37
2022-11-05T06:39:13.284Z,99337.53
2022-11-05T06:42:16.455Z,99349.75
2022-11-05T06:44:38.564Z,99351.94
2022-11-05T06:47:09.871Z,99350.59
2022-11-05T06:49:41.030Z,99351.97
2022-11-05T06:52:10.715Z,99356.44
2022-11-05T06:54:39.817Z,99357.94
2022-11-05T06:57:10.044Z,99368.69
2022-11-05T06:59:42.272Z,99369.75
2022-11-05T07:02:14.433Z,99378.31
2022-11-05T07:04:42.646Z,99373.59
2022-11-05T07:07:10.286Z,99368.78
2022-11-05T07:09:43.842Z,99371.94
2022-11-05T07:12:11.903Z,99373.34
2022-11-05T07:14:40.730Z,99374.38
2022-11-05T07:17:09.128Z,99380.41
2022-11-05T07:19:38.461Z,99377.66
2022-11-05T07:22:08.250Z,99377.50
2022-11-05T07:24:42.129Z,99388.12
2022-11-05T07:27:12.596Z,99378.47
2022-11-05T07:29:41.015Z,99387.22
2022-11-05T07:32:09.301Z,99379.44
2022-11-05T07:34:37.930Z,99385.53
2022-11-05T07:37:09.159Z,99384.34
2022-11-05T07:39:38.172Z,99384.84
2022-11-05T07:42:06.727Z,99378.47
2022-11-05T07:44:34.661Z,99379.00
2022-11-05T07:47:05.014Z,99384.00
2022-11-05T07:49:37.503Z,99380.06
2022-11-05T07:52:07.510Z,99390.72
2022-11-05T07:54:36.338Z,99384.91
2022-11-05T07:57:05.214Z,99377.59
2022-11-05T07:59:34.139Z,99381.34
2022-11-05T08:02:03.805Z,99382.53
2022-11-05T08:04:44.424Z,99370.72
2022-11-05T08:07:14.184Z,99376.84
2022-11-05T08:09:47.205Z,99371.16
2022-11-05T08:12:16.326Z,99362.94
2022-11-05T08:14:47.171Z,99366.09
2022-11-05T08:17:18.555Z,99365.72
2022-11-05T08:19:49.785Z,99363.94
2022-11-05T08:22:18.591Z,99354.25
2022-11-05T08:24:48.348Z,99350.47
2022-11-05T08:27:18.376Z,99353.09
2022-11-05T08:29:47.614Z,99350.94
2022-11-05T08:32:16.837Z,99349.47
2022-11-05T08:34:46.597Z,99355.69
2022-11-05T08:37:15.654Z,99362.75
2022-11-05T08:39:44.636Z,99368.37
2022-11-05T08:42:15.115Z,99365.59
2022-11-05T08:44:44.072Z,99356.69
2022-11-05T08:47:18.612Z,99363.06
2022-11-05T08:49:49.022Z,99359.41
2022-11-05T08:52:18.958Z,99375.47
2022-11-05T08:54:48.207Z,99377.19
2022-11-05T08:57:17.447Z,99374.34
2022-11-05T08:59:45.523Z,99381.34
2022-11-05T09:02:15.291Z,99371.22
2022-11-05T09:04:45.334Z,99388.34
2022-11-05T09:07:14.874Z,99391.94
2022-11-05T09:09:43.364Z,99391.03
2022-11-05T09:12:12.981Z,99394.81
2022-11-05T09:14:43.078Z,99398.25
2022-11-05T09:17:21.770Z,99396.75
2022-11-05T09:19:50.329Z,99404.59
2022-11-05T09:22:19.173Z,99389.53
2022-11-05T09:25:10.620Z,99404.97
2022-11-05T09:27:42.128Z,99407.34
2022-11-05T09:30:21.773Z,99413.31
2022-11-05T09:32:51.900Z,99413.75
2022-11-05T09:35:20.834Z,99410.16
2022-11-05T09:37:50.578Z,99420.09
2022-11-05T09:40:19.976Z,99409.88
2022-11-05T09:42:53.304Z,99411.50
2022-11-05T09:45:26.096Z,99405.63
2022-11-05T09:48:02.481Z,99396.19
2022-11-05T09:50:38.357Z,99394.03
2022-11-05T09:53:08.946Z,99397.59
2022-11-05T09:55:42.107Z,99393.25
2022-11-05T09:58:32.850Z,99397.94
2022-11-05T10:01:04.474Z,99401.69
2022-11-05T10:03:34.593Z,99401.44
2022-11-05T10:06:09.089Z,99399.81
2022-11-05T10:08:44.881Z,99401.38
2022-11-05T10:11:39.139Z,99398.81
2022-11-05T10:14:23.833Z,99391.28
2022-11-05T10:17:11.973Z,99400.44
2022-11-05T10:19:51.259Z,99395.91
2022-11-05T10:22:21.627Z,99398.94
2022-11-05T10:24:55.382Z,99398.31
2022-11-05T10:27:31.508Z,99376.66
2022-11-05T10:30:02.495Z,99386.84
2022-11-05T10:32:37.195Z,99384.97
2022-11-05T10:35:12.881Z,99379.66
2022-11-05T10:37:42.639Z,99388.63
2022-11-05T10:40:25.170Z,99388.81
2022-11-05T10:43:14.595Z,99383.91
2022-11-05T10:46:08.438Z,99386.66
2022-11-05T10:48:53.109Z,99382.84
2022-11-05T10:51:22.448Z,99384.25
2022-11-05T10:54:00.500Z,99396.00
2022-11-05T10:56:38.168Z,99395.16
2022-11-05T10:59:19.829Z,99402.00
2022-11-05T11:01:47.862Z,99410.31
2022-11-05T11:04:27.951Z,99404.91
2022-11-05T11:07:00.925Z,99407.72
2022-11-05T11:09:35.921Z,99407.03
2022-11-05T11:12:21.722Z,99399.75
2022-11-05T11:15:05.737Z,99400.03
2022-11-05T11:17:35.954Z,99378.97
2022-11-05T11:20:20.531Z,99396.19
2022-11-05T11:23:03.491Z,99391.22
2022-11-05T11:25:51.525Z,99395.59
2022-11-05T11:28:28.128Z,99387.81
2022-11-05T11:31:04.802Z,99395.66
2022-11-05T11:33:35.703Z,99406.69
2022-11-05T11:36:04.244Z,99403.97
2022-11-05T11:38:34.717Z,99396.72
2022-11-05T11:41:15.676Z,99379.56
2022-11-05T11:43:45.564Z,99383.69
2022-11-05T11:46:19.694Z,99394.25
2022-11-05T11:48:50.572Z,99388.88
2022-11-05T11:51:41.400Z,99380.03
2022-11-05T11:54:29.026Z,99381.84
2022-11-05T11:56:58.790Z,99376.25
2022-11-05T12:00:01.838Z,99397.88
2022-11-05T12:02:41.436Z,99387.09
2022-11-05T12:05:20.327Z,99391.84
2022-11-05T12:07:58.761Z,99409.38
2022-11-05T12:11:03.607Z,99394.81
2022-11-05T12:13:42.490Z,99399.81
2022-11-05T12:16:42.863Z,99396.66
2022-11-05T12:19:39.461Z,99403.81
2022-11-05T12:22:30.903Z,99413.91
2022-11-05T12:25:23.597Z,99423.09
2022-11-05T12:27:59.499Z,99426.50
2022-11-05T12:30:52.599Z,99426.38
2022-11-05T12:33:43.203Z,99434.78
2022-11-05T12:36:34.484Z,99427.63
2022-11-05T12:39:06.469Z,99430.19
2022-11-05T12:41:49.924Z,99418.69
2022-11-05T12:44:42.861Z,99429.44
2022-11-05T12:47:49.038Z,99431.56
2022-11-05T12:50:28.803Z,99442.41
2022-11-05T12:53:01.596Z,99430.56
2022-11-05T12:55:48.113Z,99430.78
2022-11-05T12:58:22.078Z,99446.78
2022-11-05T13:00:57.670Z,99454.66
2022-11-05T13:03:36.230Z,99463.84
2022-11-05T13:06:16.231Z,99454.09
2022-11-05T13:09:04.661Z,99450.91
2022-11-05T13:12:03.288Z,99461.47
2022-11-05T13:14:41.065Z,99450.31
2022-11-05T13:17:20.834Z,99466.44
2022-11-05T13:20:17.620Z,99462.31
2022-11-05T13:23:04.047Z,99467.91
2022-11-05T13:25:36.737Z,99470.28
2022-11-05T13:28:25.175Z,99478.03
2022-11-05T13:31:02.006Z,99480.94
2022-11-05T13:33:35.958Z,99470.78
2022-11-05T13:36:39.180Z,99478.69
2022-11-05T13:39:30.829Z,99472.12
2022-11-05T13:42:21.553Z,99476.41
2022-11-05T13:45:30.861Z,99481.72
2022-11-05T13:48:48.469Z,99481.59
2022-11-05T13:51:48.182Z,99480.75
2022-11-05T13:54:23.890Z,99476.72
2022-11-05T13:57:22.562Z,99483.16
2022-11-05T14:00:17.560Z,99482.03
2022-11-05T14:02:52.064Z,99476.22
2022-11-05T14:05:29.283Z,99471.22
2022-11-05T14:08:01.688Z,99480.84
2022-11-05T14:10:39.302Z,99478.50
2022-11-05T14:13:27.766Z,99481.84
2022-11-05T14:16:09.913Z,99479.38
2022-11-05T14:18:42.426Z,99486.72
2022-11-05T14:21:47.766Z,99482.78
2022-11-05T14:24:22.699Z,99487.44
2022-11-05T14:27:03.357Z,99498.16
2022-11-05T14:29:42.754Z,99482.34
2022-11-05T14:32:20.221Z,99493.16
2022-11-05T14:35:16.145Z,99496.25
2022-11-05T14:38:28.699Z,99496.69
2022-11-05T14:41:01.165Z,99494.75
2022-11-05T14:43:37.521Z,99509.19
2022-11-05T14:46:08.963Z,99498.59
2022-11-05T14:48:43.442Z,99506.53
2022-11-05T14:51:34.095Z,99517.50
2022-11-05T14:54:26.198Z,99510.31
2022-11-05T14:57:00.109Z,99515.22
2022-11-05T14:59:32.619Z,99510.66
2022-11-05T15:02:07.531Z,99518.41
2022-11-05T15:04:45.827Z,99520.59
2022-11-05T15:07:32.288Z,99518.94
2022-11-05T15:10:21.224Z,99526.88
2022-11-05T15:12:58.305Z,99533.72
2022-11-05T15:15:32.793Z,99523.69
2022-11-05T15:18:32.607Z,99530.75
2022-11-05T15:21:02.664Z,99529.25
2022-11-05T15:23:46.113Z,99530.88
2022-11-05T15:26:20.011Z,99531.47
2022-11-05T15:28:51.884Z,99537.94
2022-11-05T15:31:41.432Z,99541.56
2022-11-05T15:34:35.561Z,99532.75
2022-11-05T15:37:10.971Z,99544.97
2022-11-05T15:39:41.105Z,99540.31
2022-11-05T15:42:18.451Z,99548.69
2022-11-05T15:44:55.482Z,99539.03
2022-11-05T15:47:36.612Z,99554.88
2022-11-05T15:50:17.750Z,99568.13
2022-11-05T15:52:51.017Z,99560.44
2022-11-05T15:55:25.224Z,99557.53
2022-11-05T15:58:08.585Z,99558.94
2022-11-05T16:00:48.787Z,99553.41
2022-11-05T16:03:34.512Z,99554.38
2022-11-05T16:06:03.777Z,99560.59
2022-11-05T16:08:32.706Z,99569.94
2022-11-05T16:11:03.640Z,99571.31
2022-11-05T16:13:38.565Z,99576.00
2022-11-05T16:16:15.155Z,99570.03
2022-11-05T16:18:45.840Z,99584.16
2022-11-05T16:21:22.944Z,99580.41
2022-11-05T16:23:52.926Z,99576.84
2022-11-05T16:29:40.816Z,99587.09
2022-11-05T16:32:30.999Z,99597.25
2022-11-05T16:35:04.009Z,99593.34
2022-11-05T16:37:46.452Z,99602.53
2022-11-05T16:40:24.145Z,99600.81
2022-11-05T16:42:54.652Z,99602.19
2022-11-05T16:45:27.103Z,99611.59
2022-11-05T16:47:55.609Z,99612.97
2022-11-05T16:50:29.461Z,99621.28
2022-11-05T16:52:59.524Z,99624.12
2022-11-05T16:55:34.070Z,99622.00
2022-11-05T16:58:02.894Z,99624.81
2022-11-05T17:00:32.089Z,99624.94
2022-11-05T17:03:02.522Z,99633.78
2022-11-05T17:05:33.136Z,99631.16
2022-11-05T17:08:04.027Z,99630.63
2022-11-05T17:10:34.529Z,99646.84
2022-11-05T17:13:05.708Z,99639.84
2022-11-05T17:15:38.691Z,99644.00
2022-11-05T17:18:11.630Z,99640.16
2022-11-05T17:20:55.794Z,99639.16
2022-11-05T17:23:28.109Z,99648.41
2022-11-05T17:26:05.522Z,99646.94
2022-11-05T17:28:39.802Z,99636.88
2022-11-05T17:31:14.364Z,99634.63
2022-11-05T17:33:44.998Z,99647.47
2022-11-05T17:36:17.303Z,99651.41
2022-11-05T17:38:47.403Z,99655.66
2022-11-05T17:41:31.782Z,99650.34
2022-11-05T17:44:15.151Z,99662.31
2022-11-05T17:46:46.485Z,99666.78
2022-11-05T17:49:17.124Z,99659.59
2022-11-05T17:51:45.817Z,99672.91
2022-11-05T17:54:16.244Z,99668.50
2022-11-05T17:56:46.411Z,99669.97
2022-11-05T17:59:16.100Z,99675.41
2022-11-05T18:01:46.742Z,99673.37
2022-11-05T18:04:16.974Z,99675.63
2022-11-05T18:06:45.040Z,99673.63
2022-11-05T18:09:14.716Z,99680.87
2022-11-05T18:11:45.898Z,99676.75
2022-11-05T18:14:16.757Z,99681.00
2022-11-05T18:16:51.949Z,99686.31
2022-11-05T18:19:21.822Z,99683.88
2022-11-05T18:21:51.064Z,99685.22
2022-11-05T18:24:20.456Z,99691.50
2022-11-05T18:26:51.232Z,99698.00
2022-11-05T18:29:22.407Z,99701.00
2022-11-05T18:31:52.876Z,99700.22
2022-11-05T18:34:23.735Z,99709.28
2022-11-05T18:36:56.169Z,99717.13
2022-11-05T18:39:28.001Z,99722.69
2022-11-05T18:41:55.863Z,99720.09
2022-11-05T18:44:27.433Z,99730.62
2022-11-05T18:46:58.972Z,99732.09
2022-11-05T18:49:30.159Z,99735.53
2022-11-05T18:52:00.848Z,99740.09
2022-11-05T18:54:31.046Z,99745.34
2022-11-05T18:57:01.390Z,99738.81
2022-11-05T18:59:38.273Z,99741.31
2022-11-05T19:02:09.633Z,99746.00
2022-11-05T19:04:39.477Z,99741.72
2022-11-05T19:07:10.013Z,99750.19
2022-11-05T19:09:40.988Z,99752.94
2022-11-05T19:12:10.800Z,99757.91
2022-11-05T19:14:40.534Z,99746.28
2022-11-05T19:17:12.725Z,99755.84
2022-11-05T19:19:44.612Z,99765.22
2022-11-05T19:22:13.660Z,99772.28
2022-11-05T19:24:43.248Z,99776.66
2022-11-05T19:27:13.817Z,99773.03
2022-11-05T19:29:43.652Z,99780.03
2022-11-05T19:32:14.291Z,99777.28
2022-11-05T19:34:45.295Z,99781.47
2022-11-05T19:37:14.540Z,99781.63
2022-11-05T19:39:44.793Z,99783.16
2022-11-05T19:42:14.684Z,99787.31
2022-11-05T19:44:44.331Z,99784.56
2022-11-05T19:47:14.396Z,99791.97
2022-11-05T19:49:45.169Z,99796.25
2022-11-05T19:52:13.651Z,99796.28
2022-11-05T19:54:47.305Z,99801.63
2022-11-05T19:57:17.570Z,99809.00
2022-11-05T19:59:48.702Z,99807.69
2022-11-05T20:02:19.523Z,99815.78
2022-11-05T20:04:52.252Z,99814.88
2022-11-05T20:07:22.972Z,99820.66
2022-11-05T20:10:03.417Z,99814.25
2022-11-05T20:12:37.141Z,99820.50
2022-11-05T20:15:07.849Z,99821.25
2022-11-05T20:17:39.727Z,99828.00
2022-11-05T20:20:13.895Z,99829.44
2022-11-05T20:22:49.115Z,99823.16
2022-11-05T20:25:18.133Z,99841.37
2022-11-05T20:27:48.784Z,99845.44
2022-11-05T20:30:18.278Z,99838.41
2022-11-05T20:32:48.006Z,99846.91
2022-11-05T20:35:16.715Z,99848.34
2022-11-05T20:37:48.537Z,99853.31
2022-11-05T20:40:21.131Z,99855.84
2022-11-05T20:42:50.203Z,99858.09
2022-11-05T20:45:22.117Z,99860.25
2022-11-05T20:47:56.453Z,99864.28
2022-11-05T20:50:26.509Z,99859.84
2022-11-05T20:52:55.965Z,99859.56
2022-11-05T20:55:27.858Z,99858.75
2022-11-05T20:57:57.962Z,99858.22
2022-11-05T21:00:29.752Z,99863.37
2022-11-05T21:03:00.829Z,99871.16
2022-11-05T21:05:35.631Z,99867.62
2022-11-05T21:08:05.640Z,99867.34
2022-11-05T21:10:36.474Z,99870.84
2022-11-05T21:13:10.725Z,99871.19
2022-11-05T21:15:41.026Z,99878.16
2022-11-05T21:18:11.111Z,99865.31
2022-11-05T21:20:40.981Z,99876.72
2022-11-05T21:23:12.026Z,99879.75
2022-11-05T21:25:42.491Z,99877.97
2022-11-05T21:28:15.775Z,99877.97
2022-11-05T21:30:47.745Z,99877.81
2022-11-05T21:33:19.612Z,99880.09
2022-11-05T21:35:50.238Z,99880.16
2022-11-05T21:38:20.802Z,99880.75
2022-11-05T21:40:50.670Z,99883.56
2022-11-05T21:43:26.065Z,99887.41
2022-11-05T21:45:55.515Z,99882.06
2022-11-05T21:48:24.084Z,99887.47
2022-11-05T21:51:12.034Z,99887.63
2022-11-05T21:54:00.916Z,99890.31
2022-11-05T21:56:50.368Z,99891.34
2022-11-05T21:59:41.321Z,99896.44
2022-11-05T22:02:13.213Z,99892.81
2022-11-05T22:04:46.862Z,99888.91
2022-11-05T22:07:19.190Z,99889.28
2022-11-05T22:09:49.050Z,99891.63
2022-11-05T22:12:19.491Z,99897.56
2022-11-05T22:14:49.036Z,99892.25
2022-11-05T22:17:20.221Z,99891.81
2022-11-05T22:19:49.542Z,99896.31
2022-11-05T22:22:17.572Z,99890.09
2022-11-05T22:24:46.272Z,99891.06
2022-11-05T22:27:18.219Z,99884.09
2022-11-05T22:29:47.336Z,99894.22
2022-11-05T22:32:18.508Z,99887.91
2022-11-05T22:34:49.555Z,99890.94
2022-11-05T22:37:18.498Z,99900.97
2022-11-05T22:39:48.905Z,99902.06
2022-11-05T22:42:17.810Z,99899.59
2022-11-05T22:44:48.799Z,99900.69
2022-11-05T22:47:18.655Z,99904.56
2022-11-05T22:49:50.482Z,99890.75
2022-11-05T22:52:20.602Z,99903.91
2022-11-05T22:54:50.569Z,99900.00
2022-11-05T22:57:19.625Z,99899.63
2022-11-05T22:59:47.901Z,99906.44
2022-11-05T23:02:15.708Z,99903.66
2022-11-05T23:04:45.110Z,99901.84
2022-11-05T23:07:33.056Z,99903.59
2022-11-05T23:10:20.778Z,99901.25
2022-11-05T23:12:54.029Z,99903.34
2022-11-05T23:15:42.424Z,99901.06
2022-11-05T23:18:29.398Z,99906.50
2022-11-05T23:21:22.715Z,99909.63
2022-11-05T23:24:06.750Z,99910.00
2022-11-05T23:26:50.484Z,99912.75
2022-11-05T23:29:23.585Z,99913.19
2022-11-05T23:32:12.979Z,99917.84
2022-11-05T23:34:42.189Z,99915.91
2022-11-05T23:37:31.783Z,99926.97
2022-11-05T23:40:00.214Z,99924.22
2022-11-05T23:42:49.705Z,99921.62
2022-11-05T23:45:38.166Z,99920.97
2022-11-05T23:48:19.678Z,99926.53
2022-11-05T23:50:56.523Z,99923.25
2022-11-05T23:53:27.602Z,99929.41
2022-11-05T23:56:00.723Z,99920.00
2022-11-05T23:58:29.806Z,99920.97
